West Annville, Pennsylvania
Current Conditions -  °F | °C
As of 6:58 AM on Thursday 27 Nov 2014 (Local Time) from KMUI Reporting Station
Overcast Overcast  
Wind Chill:   Ceiling: 7000
Heat Index:   Visibility: 10mi
Dew Point: -3°   Wind: 1mph
Humidity: 77%   Direction: NA
Pressure: 30"   Gusts: NA
Location:  40.3819°N, 76.5718°W
Report Text: KMUI 271158Z AUTO VRB01KT 10SM OVC070 00/M03 A3000 RMK AO2 SLP167 70065 T00041032 10011 20004 53005 $
Loading
Personal Weather Stations






























Interactive Weather Map New forecast layout! Learn more

10-Day Weather Forecast

Advertisements
Track Severe Weather on mobile